Time;durP1;ratioP1;P1;durP2;ratioP2;P2;SDS_P1;SDS_P2;PMS_P1;PMS_P2;Temp;Humidity;BMP_temperature;BMP_pressure;BME280_temperature;BME280_humidity;BME280_pressure;Samples;Min_cycle;Max_cycle;Signal;HPM_P1;HPM_P2
2022/05/07 00:01:35;;;;;;;50.55;29.40;;;;;;;12.47;100.00;101972.47;4986825;28;20049;-77
2022/05/07 00:04:04;;;;;;;71.00;27.38;;;;;;;12.46;100.00;101963.34;4978488;28;20061;-76
2022/05/07 00:06:29;;;;;;;49.88;26.83;;;;;;;12.47;100.00;101972.47;5001374;28;20027;-76
2022/05/07 00:08:55;;;;;;;45.13;24.23;;;;;;;12.49;100.00;101960.38;4977041;28;20379;-76
2022/05/07 00:11:21;;;;;;;37.85;22.30;;;;;;;12.47;100.00;101966.97;5011218;28;20116;-77
2022/05/07 00:13:49;;;;;;;42.92;24.00;;;;;;;12.48;100.00;101971.47;4989471;28;20038;-76
2022/05/07 00:19:00;;;;;;;42.40;22.48;;;;;;;12.48;100.00;101958.63;4993079;28;20034;-77
2022/05/07 00:21:26;;;;;;;40.25;22.70;;;;;;;12.31;100.00;101968.03;4973272;28;20034;-77
2022/05/07 00:23:53;;;;;;;40.40;22.52;;;;;;;12.29;100.00;101972.72;4996311;28;20100;-77
2022/05/07 00:26:23;;;;;;;36.65;21.67;;;;;;;12.48;100.00;101966.00;4991571;28;20023;-76
2022/05/07 00:28:49;;;;;;;37.92;22.00;;;;;;;12.50;100.00;101955.75;4972212;28;20379;-77
2022/05/07 00:31:18;;;;;;;36.45;20.55;;;;;;;12.54;100.00;101954.53;4994864;28;20035;-77
2022/05/07 00:33:44;;;;;;;38.63;21.48;;;;;;;12.63;100.00;101953.03;4995436;28;20049;-77
2022/05/07 00:36:09;;;;;;;37.83;22.45;;;;;;;12.60;100.00;101951.38;4995906;28;20181;-77
2022/05/07 00:38:35;;;;;;;37.33;22.83;;;;;;;12.58;100.00;101945.13;4978025;28;20050;-77
2022/05/07 00:41:01;;;;;;;47.70;24.98;;;;;;;12.53;100.00;101949.16;4959977;28;20589;-77
2022/05/07 00:43:35;;;;;;;47.92;24.10;;;;;;;12.24;100.00;101941.97;4985957;28;20042;-76
2022/05/07 00:46:02;;;;;;;58.67;29.95;;;;;;;12.12;100.00;101940.94;4993839;28;20179;-77
2022/05/07 00:48:29;;;;;;;49.15;26.77;;;;;;;12.12;100.00;101942.81;5010443;28;20038;-77
2022/05/07 00:53:41;;;;;;;51.00;24.92;;;;;;;12.02;100.00;101949.91;4987567;28;20046;-77
2022/05/07 00:56:10;;;;;;;48.85;26.15;;;;;;;11.94;100.00;101945.81;4975606;28;20046;-77
2022/05/07 00:58:36;;;;;;;48.95;23.60;;;;;;;12.00;100.00;101950.00;4951502;28;20382;-79
2022/05/07 01:01:03;;;;;;;35.38;22.65;;;;;;;11.98;100.00;101948.34;4996670;28;20462;-77
2022/05/07 01:03:33;;;;;;;40.47;23.35;;;;;;;11.89;100.00;101944.34;4996522;28;20077;-77
2022/05/07 01:06:00;;;;;;;43.80;23.98;;;;;;;11.97;100.00;101949.31;4968355;28;20473;-77
2022/05/07 01:08:30;;;;;;;42.10;23.60;;;;;;;11.96;100.00;101945.72;4988517;28;20520;-76
2022/05/07 01:10:57;;;;;;;45.28;23.48;;;;;;;12.03;100.00;101947.03;4988648;28;20361;-77
2022/05/07 01:13:25;;;;;;;41.15;21.98;;;;;;;11.93;100.00;101937.69;5009973;28;20042;-78
2022/05/07 01:15:54;;;;;;;41.83;23.00;;;;;;;12.07;100.00;101945.00;4967543;28;20042;-77
2022/05/07 01:18:21;;;;;;;40.78;22.52;;;;;;;11.85;100.00;101940.91;4995965;28;20096;-77
2022/05/07 01:20:49;;;;;;;40.53;23.00;;;;;;;12.01;100.00;101937.19;4975144;28;20069;-77
2022/05/07 01:23:16;;;;;;;36.90;23.67;;;;;;;11.86;100.00;101931.69;4990448;28;20031;-78
2022/05/07 01:25:49;;;;;;;44.80;23.17;;;;;;;11.82;100.00;101934.75;4989166;28;20466;-77
2022/05/07 01:28:15;;;;;;;39.17;23.13;;;;;;;11.89;100.00;101931.50;4994387;28;20045;-77
2022/05/07 01:30:41;;;;;;;44.45;23.38;;;;;;;11.91;100.00;101936.88;4961456;28;20049;-77
2022/05/07 01:33:09;;;;;;;39.47;23.80;;;;;;;11.98;100.00;101932.75;4962705;28;20043;-78
2022/05/07 01:35:37;;;;;;;36.63;23.75;;;;;;;11.90;100.00;101935.09;4977844;28;20038;-77
2022/05/07 01:38:14;;;;;;;42.22;24.33;;;;;;;11.98;100.00;101929.16;4946650;28;20031;-77
2022/05/07 01:40:40;;;;;;;35.63;24.02;;;;;;;12.03;100.00;101936.06;4993907;28;20030;-77
2022/05/07 01:43:05;;;;;;;39.85;23.42;;;;;;;11.98;100.00;101927.28;4995034;28;20499;-77
2022/05/07 01:45:32;;;;;;;48.80;26.00;;;;;;;12.10;100.00;101923.69;4977230;28;20438;-77
2022/05/07 01:48:11;;;;;;;41.83;23.88;;;;;;;11.85;100.00;101918.06;4992107;28;20089;-77
2022/05/07 01:50:43;;;;;;;38.88;23.83;;;;;;;11.83;100.00;101923.66;4970029;28;20094;-77
2022/05/07 01:53:18;;;;;;;50.10;25.55;;;;;;;11.80;100.00;101915.63;4972185;28;20042;-77
2022/05/07 01:55:45;;;;;;;40.22;25.23;;;;;;;11.85;100.00;101927.19;4991338;28;20026;-77
2022/05/07 01:58:11;;;;;;;49.03;27.40;;;;;;;11.90;100.00;101929.63;4993744;28;20046;-77
2022/05/07 02:00:41;;;;;;;47.72;27.65;;;;;;;11.70;100.00;101918.13;4992302;28;20500;-77
2022/05/07 02:03:08;;;;;;;45.55;25.60;;;;;;;11.57;100.00;101914.44;4992711;28;20389;-77
2022/05/07 02:05:34;;;;;;;43.58;25.65;;;;;;;11.55;100.00;101910.94;5010822;28;20073;-77
2022/05/07 02:08:04;;;;;;;42.47;26.40;;;;;;;11.66;100.00;101921.16;4992904;28;20394;-76
2022/05/07 02:10:30;;;;;;;46.50;27.38;;;;;;;11.47;100.00;101911.41;4992250;28;20038;-77
2022/05/07 02:13:05;;;;;;;44.00;26.88;;;;;;;11.48;100.00;101917.78;4993748;28;20027;-77
2022/05/07 02:15:36;;;;;;;49.97;26.52;;;;;;;11.51;100.00;101921.22;4977586;28;20038;-77
2022/05/07 02:18:04;;;;;;;50.90;25.58;;;;;;;11.45;100.00;101912.53;4968947;28;20085;-77
2022/05/07 02:20:30;;;;;;;47.40;26.75;;;;;;;11.35;100.00;101910.38;4994353;28;20074;-77
2022/05/07 02:23:05;;;;;;;44.58;25.60;;;;;;;11.45;100.00;101913.38;4993690;28;20046;-77
2022/05/07 02:25:31;;;;;;;41.22;26.13;;;;;;;11.45;100.00;101913.38;4993195;28;20145;-77
2022/05/07 02:27:57;;;;;;;41.83;25.33;;;;;;;11.44;100.00;101910.75;5009746;28;20034;-77
2022/05/07 02:30:29;;;;;;;47.42;26.17;;;;;;;11.46;100.00;101917.91;5000401;28;20050;-78
2022/05/07 02:32:55;;;;;;;53.10;27.30;;;;;;;11.43;100.00;101917.19;5006089;28;20034;-77
2022/05/07 02:35:22;;;;;;;50.28;29.23;;;;;;;11.45;100.00;101913.38;4978133;28;20448;-78
2022/05/07 02:37:50;;;;;;;44.83;26.92;;;;;;;11.41;100.00;101920.03;4992929;28;20053;-78
2022/05/07 02:40:19;;;;;;;48.08;27.77;;;;;;;11.34;100.00;101914.09;4990970;28;20449;-77
2022/05/07 02:42:47;;;;;;;45.17;27.73;;;;;;;11.40;100.00;101916.44;4994546;28;20042;-76
2022/05/07 02:45:13;;;;;;;49.17;26.75;;;;;;;11.28;100.00;101919.09;4980785;28;20048;-77
2022/05/07 02:47:40;;;;;;;47.67;27.98;;;;;;;11.16;100.00;101913.41;4986401;28;20045;-77
2022/05/07 02:50:08;;;;;;;52.63;27.95;;;;;;;11.16;100.00;101920.78;4994633;28;20054;-76
2022/05/07 02:52:35;;;;;;;41.80;26.63;;;;;;;11.16;100.00;101923.50;4958419;28;20439;-76
2022/05/07 02:55:02;;;;;;;46.53;27.70;;;;;;;11.16;100.00;101920.78;4986508;28;20530;-76
2022/05/07 02:57:28;;;;;;;46.72;26.65;;;;;;;11.26;100.00;101921.06;4996426;28;20537;-77
2022/05/07 02:59:58;;;;;;;47.88;26.10;;;;;;;11.32;100.00;101918.78;4987197;28;20360;-76
2022/05/07 03:02:25;;;;;;;51.83;28.48;;;;;;;11.37;100.00;101913.88;4993748;28;20524;-77
2022/05/07 03:04:52;;;;;;;45.35;27.67;;;;;;;11.39;100.00;101922.00;4984698;28;20130;-77
2022/05/07 03:07:22;;;;;;;49.08;26.98;;;;;;;11.41;100.00;101914.56;4981935;28;20041;-76
2022/05/07 03:09:51;;;;;;;46.67;26.63;;;;;;;11.47;100.00;101914.16;4977077;28;20034;-76
2022/05/07 03:12:28;;;;;;;48.53;26.05;;;;;;;11.50;100.00;101913.09;4993026;28;20049;-76
2022/05/07 03:15:00;;;;;;;48.28;27.25;;;;;;;11.32;100.00;101909.69;4993968;28;20034;-76
2022/05/07 03:17:27;;;;;;;50.30;26.92;;;;;;;11.35;100.00;101912.25;4993485;28;20054;-77
2022/05/07 03:20:06;;;;;;;52.72;27.25;;;;;;;11.24;100.00;101901.97;4962508;28;20045;-76
2022/05/07 03:22:31;;;;;;;55.65;28.45;;;;;;;11.16;100.00;101901.59;4977749;28;20203;-76
2022/05/07 03:25:06;;;;;;;44.85;26.77;;;;;;;11.15;100.00;101902.56;4994214;28;20030;-76
2022/05/07 03:27:34;;;;;;;45.17;27.25;;;;;;;11.03;100.00;101904.22;4983642;28;20466;-77
2022/05/07 03:29:59;;;;;;;43.78;25.67;;;;;;;11.08;100.00;101896.59;4969597;28;20066;-76
2022/05/07 03:32:25;;;;;;;47.78;26.60;;;;;;;11.08;100.00;101899.34;4992349;28;20034;-77
2022/05/07 03:34:51;;;;;;;47.55;25.83;;;;;;;11.03;100.00;101905.13;4985175;28;20038;-77
2022/05/07 03:37:18;;;;;;;45.25;26.20;;;;;;;11.09;100.00;101895.63;4973363;28;20093;-77
2022/05/07 03:39:43;;;;;;;50.58;28.50;;;;;;;11.15;100.00;101902.56;4989833;28;20466;-76
2022/05/07 03:42:10;;;;;;;49.17;28.67;;;;;;;11.26;100.00;101901.88;4976579;28;20039;-76
2022/05/07 03:44:35;;;;;;;48.22;27.27;;;;;;;11.41;100.00;101898.09;4993429;28;20038;-77
2022/05/07 03:47:06;;;;;;;50.67;27.65;;;;;;;11.40;100.00;101890.88;4982714;28;20034;-76
2022/05/07 03:49:31;;;;;;;49.28;27.63;;;;;;;11.44;100.00;101889.69;4993464;28;20066;-76
2022/05/07 03:54:45;;;;;;;47.60;26.25;;;;;;;11.37;100.00;101897.44;4972610;28;20046;-77
2022/05/07 03:57:13;;;;;;;48.75;27.85;;;;;;;11.44;100.00;101894.28;4995658;28;20030;-77
2022/05/07 03:59:48;;;;;;;56.65;29.42;;;;;;;11.53;100.00;101904.66;4964035;28;20581;-77
2022/05/07 04:02:17;;;;;;;51.15;28.77;;;;;;;11.50;100.00;101896.63;4986080;28;20031;-77
2022/05/07 04:04:44;;;;;;;52.92;28.15;;;;;;;11.66;100.00;101900.13;5000378;28;20038;-76
2022/05/07 04:07:10;;;;;;;44.03;27.45;;;;;;;11.72;100.00;101901.56;4982232;28;20054;-78
2022/05/07 04:09:36;;;;;;;51.72;28.08;;;;;;;11.80;100.00;101901.91;4984528;28;20038;-77
2022/05/07 04:12:04;;;;;;;49.35;28.20;;;;;;;11.74;100.00;101905.97;4996686;28;20058;-77
2022/05/07 04:14:32;;;;;;;43.28;27.60;;;;;;;11.87;100.00;101908.78;4970967;28;20042;-77
2022/05/07 04:16:58;;;;;;;44.63;26.48;;;;;;;11.72;100.00;101907.94;4977398;28;20062;-76
2022/05/07 04:19:34;;;;;;;51.47;28.05;;;;;;;11.59;100.00;101906.97;5002407;28;20077;-76
2022/05/07 04:22:01;;;;;;;51.92;27.45;;;;;;;11.66;100.00;101908.34;4973887;28;20026;-76
2022/05/07 04:24:33;;;;;;;46.50;27.00;;;;;;;11.68;100.00;101898.16;4977993;28;20118;-76
2022/05/07 04:27:08;;;;;;;42.50;27.27;;;;;;;11.72;100.00;101907.94;4980833;28;20057;-77
2022/05/07 04:29:40;;;;;;;49.10;30.27;;;;;;;11.59;100.00;101907.88;4973868;28;20569;-77
2022/05/07 04:32:07;;;;;;;47.78;28.75;;;;;;;11.62;100.00;101912.25;4959582;28;20035;-76
2022/05/07 04:34:44;;;;;;;53.67;29.23;;;;;;;11.69;100.00;101915.47;4979184;28;20103;-76
2022/05/07 04:37:09;;;;;;;50.20;28.95;;;;;;;11.82;100.00;101918.28;4995459;28;20066;-77
2022/05/07 04:39:47;;;;;;;53.05;29.23;;;;;;;11.78;100.00;101913.00;4982725;28;20061;-77
2022/05/07 04:42:25;;;;;;;45.75;28.48;;;;;;;11.81;100.00;101914.66;4994697;28;20382;-77
2022/05/07 04:44:56;;;;;;;49.65;29.40;;;;;;;11.80;100.00;101914.78;4997277;28;20112;-77
2022/05/07 04:47:22;;;;;;;51.78;29.60;;;;;;;11.78;100.00;101918.47;4980223;28;20415;-77
2022/05/07 04:49:52;;;;;;;51.78;28.05;;;;;;;11.88;100.00;101921.50;4996379;28;20030;-76
2022/05/07 04:52:21;;;;;;;46.97;27.25;;;;;;;11.95;100.00;101925.63;4996016;28;20854;-77
2022/05/07 04:54:48;;;;;;;47.90;28.13;;;;;;;11.90;100.00;101921.38;4996663;28;20034;-77
2022/05/07 04:57:18;;;;;;;56.85;29.45;;;;;;;12.01;100.00;101928.94;4979619;28;20035;-77
2022/05/07 04:59:49;;;;;;;51.78;28.40;;;;;;;12.00;100.00;101940.88;4984539;28;20044;-77
2022/05/07 05:02:17;;;;;;;52.70;28.83;;;;;;;12.08;100.00;101942.13;4985020;28;20037;-77
2022/05/07 05:04:45;;;;;;;62.35;28.40;;;;;;;12.21;100.00;101922.94;4996726;28;20117;-76
2022/05/07 05:07:12;;;;;;;49.83;27.90;;;;;;;12.18;100.00;101933.25;4968182;28;20046;-77
2022/05/07 05:09:37;;;;;;;51.15;27.52;;;;;;;12.19;100.00;101933.16;4979762;28;20121;-76
2022/05/07 05:12:06;;;;;;;47.45;26.92;;;;;;;12.27;100.00;101938.13;4995906;28;20022;-77
2022/05/07 05:17:19;;;;;;;56.35;27.95;;;;;;;12.38;100.00;101935.53;4995625;28;20054;-77
2022/05/07 05:19:45;;;;;;;50.55;26.80;;;;;;;12.47;100.00;101939.50;4996671;28;20045;-77
2022/05/07 05:22:14;;;;;;;53.50;27.08;;;;;;;12.47;100.00;101942.25;4987528;28;20041;-77
2022/05/07 05:24:40;;;;;;;52.08;27.45;;;;;;;12.49;100.00;101941.16;4980744;28;20390;-77
2022/05/07 05:27:06;;;;;;;52.53;26.58;;;;;;;12.50;100.00;101948.41;4986703;28;20089;-78
2022/05/07 05:29:36;;;;;;;53.13;28.02;;;;;;;12.45;100.00;101950.59;4990725;28;20470;-77
2022/05/07 05:32:08;;;;;;;48.08;27.27;;;;;;;12.51;100.00;101943.81;4995155;28;20065;-76
2022/05/07 05:34:38;;;;;;;49.65;27.85;;;;;;;12.47;100.00;101956.84;5013786;28;20069;-78
2022/05/07 05:37:04;;;;;;;55.60;29.27;;;;;;;12.45;100.00;101960.69;4959628;28;20042;-78
2022/05/07 05:39:33;;;;;;;44.28;26.95;;;;;;;12.50;100.00;101956.63;5005417;28;20030;-78
2022/05/07 05:41:59;;;;;;;48.65;28.38;;;;;;;12.49;100.00;101960.38;5017831;28;20034;-77
2022/05/07 05:44:25;;;;;;;55.88;28.55;;;;;;;12.45;100.00;101957.97;4993330;28;20057;-78
2022/05/07 05:46:53;;;;;;;55.90;28.90;;;;;;;12.44;100.00;101965.28;4991208;28;20106;-79
2022/05/07 05:49:22;;;;;;;57.20;28.23;;;;;;;12.52;100.00;101967.53;4987849;28;20564;-78
2022/05/07 05:51:48;;;;;;;55.50;28.83;;;;;;;12.69;100.00;101963.59;4993802;28;20188;-77
2022/05/07 05:54:13;;;;;;;58.05;29.13;;;;;;;12.76;100.00;101972.31;4957557;28;20050;-78
2022/05/07 05:56:49;;;;;;;54.47;28.67;;;;;;;12.82;100.00;101969.09;4986834;28;20097;-77
2022/05/07 05:59:21;;;;;;;51.60;29.85;;;;;;;12.90;100.00;101966.69;4981617;28;20428;-77
2022/05/07 06:01:56;;;;;;;53.00;30.20;;;;;;;12.95;100.00;101969.09;4987219;28;20035;-77
2022/05/07 06:04:33;;;;;;;53.20;28.58;;;;;;;13.06;100.00;101970.09;5008913;28;20046;-78
2022/05/07 06:07:03;;;;;;;57.33;28.10;;;;;;;13.35;100.00;101978.16;4975995;28;20342;-77
2022/05/07 06:09:38;;;;;;;50.78;26.75;;;;;;;13.08;100.00;101971.88;5008091;28;21052;-77
2022/05/07 06:12:09;;;;;;;51.40;27.98;;;;;;;13.21;100.00;101975.47;4984192;28;20050;-79
2022/05/07 06:14:46;;;;;;;48.05;27.52;;;;;;;13.20;100.00;101982.00;4962043;28;20038;-78
2022/05/07 06:17:16;;;;;;;54.88;27.13;;;;;;;13.26;100.00;101991.66;4992537;28;20061;-75
2022/05/07 06:19:42;;;;;;;49.15;26.88;;;;;;;13.27;100.00;101985.19;4985328;28;20157;-75
2022/05/07 06:22:13;;;;;;;47.47;27.00;;;;;;;13.55;100.00;101989.56;4986198;28;20034;-74
2022/05/07 06:27:42;;;;;;;45.67;25.33;;;;;;;14.08;100.00;101989.28;4981801;28;20034;-74
2022/05/07 06:30:12;;;;;;;46.33;26.05;;;;;;;14.32;100.00;101986.56;4990168;28;20041;-76
2022/05/07 06:32:42;;;;;;;46.95;26.10;;;;;;;14.58;100.00;101991.94;4976964;28;20043;-75
2022/05/07 06:35:09;;;;;;;48.17;25.75;;;;;;;15.18;100.00;101988.09;4970382;28;20101;-77
2022/05/07 06:37:48;;;;;;;46.90;26.33;;;;;;;15.09;100.00;101999.84;4998561;28;20471;-76
2022/05/07 06:40:23;;;;;;;54.67;26.27;;;;;;;14.99;100.00;101993.31;4963118;28;20125;-75
2022/05/07 06:42:49;;;;;;;46.97;24.88;;;;;;;15.68;100.00;101989.59;4991656;28;20117;-75
2022/05/07 06:45:18;;;;;;;49.58;26.80;;;;;;;15.63;100.00;101984.47;4960857;28;20042;-75
2022/05/07 06:47:44;;;;;;;47.25;26.23;;;;;;;16.02;100.00;101987.69;4993112;28;20045;-76
2022/05/07 06:50:20;;;;;;;44.45;25.77;;;;;;;16.40;100.00;101991.84;4984734;28;20454;-76
2022/05/07 06:52:50;;;;;;;47.97;25.50;;;;;;;16.73;100.00;101996.31;4988985;28;20042;-75
2022/05/07 06:55:24;;;;;;;44.80;25.02;;;;;;;16.42;100.00;101988.94;4989043;28;20038;-76
2022/05/07 06:57:59;;;;;;;44.55;24.10;;;;;;;16.44;100.00;101993.31;4991711;28;20077;-77
2022/05/07 07:00:30;;;;;;;37.05;23.00;;;;;;;16.24;100.00;101989.50;4973048;28;20433;-75
2022/05/07 07:03:05;;;;;;;36.22;22.38;;;;;;;16.73;100.00;101992.69;4977936;28;20081;-76
2022/05/07 07:05:31;;;;;;;34.50;22.08;;;;;;;16.76;100.00;101995.19;4976701;28;20046;-75
2022/05/07 07:08:07;;;;;;;36.85;22.08;;;;;;;17.05;100.00;101992.66;4978265;28;20421;-75
2022/05/07 07:10:32;;;;;;;40.50;21.70;;;;;;;17.14;100.00;101988.19;4973413;28;20117;-76
2022/05/07 07:13:01;;;;;;;35.35;21.17;;;;;;;17.30;100.00;101989.56;4955156;28;20060;-75
2022/05/07 07:15:36;;;;;;;34.67;19.73;;;;;;;17.34;100.00;101994.72;4990772;28;20033;-76
2022/05/07 07:18:09;;;;;;;39.55;20.17;;;;;;;17.22;100.00;101996.69;4992894;28;20054;-77
2022/05/07 07:20:41;;;;;;;30.20;19.70;;;;;;;17.31;100.00;101994.13;4993773;28;20041;-76
2022/05/07 07:23:11;;;;;;;35.65;20.83;;;;;;;17.63;100.00;101992.06;4958850;28;20122;-78
2022/05/07 07:25:42;;;;;;;32.92;19.52;;;;;;;18.81;96.06;101995.94;4994510;28;20154;-77
2022/05/07 07:28:17;;;;;;;36.88;20.73;;;;;;;18.17;100.00;101989.94;4993722;28;20030;-77
2022/05/07 07:30:43;;;;;;;35.70;20.17;;;;;;;18.58;100.00;102000.91;4977307;28;20482;-77
2022/05/07 07:33:12;;;;;;;38.28;21.45;;;;;;;18.88;96.21;101994.34;4976397;28;20035;-78
2022/05/07 07:35:42;;;;;;;34.25;21.27;;;;;;;18.94;97.84;101995.66;4993041;28;20065;-77
2022/05/07 07:38:11;;;;;;;38.35;21.48;;;;;;;18.50;98.73;101996.09;4994556;28;20498;-77
2022/05/07 07:40:38;;;;;;;30.33;20.65;;;;;;;18.98;96.47;101993.47;4991910;28;20034;-77
2022/05/07 07:43:14;;;;;;;35.45;20.02;;;;;;;19.41;91.94;101994.78;4994823;28;20053;-77
2022/05/07 07:48:39;;;;;;;31.83;20.20;;;;;;;19.64;89.83;102001.75;4993058;28;20125;-77
2022/05/07 07:51:10;;;;;;;33.58;19.52;;;;;;;19.69;89.63;102005.94;4993445;28;20050;-77
2022/05/07 07:53:40;;;;;;;34.50;20.55;;;;;;;19.83;88.37;102000.78;4975603;28;20096;-76
2022/05/07 07:56:07;;;;;;;29.27;19.35;;;;;;;19.41;90.48;102001.25;4961596;28;20498;-76
2022/05/07 07:58:35;;;;;;;34.33;19.63;;;;;;;19.76;90.40;102007.13;4996933;28;20027;-76
2022/05/07 08:01:09;;;;;;;29.40;18.77;;;;;;;19.74;89.96;102003.59;4996190;28;20033;-76
2022/05/07 08:03:39;;;;;;;30.90;19.13;;;;;;;19.91;87.65;101996.38;4977748;28;20045;-75
2022/05/07 08:06:12;;;;;;;41.88;21.27;;;;;;;19.73;89.35;101997.16;4983611;28;20034;-74
2022/05/07 08:11:40;;;;;;;32.60;20.30;;;;;;;19.50;89.17;102001.38;4983184;28;20482;-75
2022/05/07 08:14:09;;;;;;;35.45;21.17;;;;;;;19.70;86.15;102000.25;4969536;28;20039;-75
2022/05/07 08:16:36;;;;;;;34.22;19.65;;;;;;;20.53;84.07;101994.63;5012372;28;20030;-75
2022/05/07 08:19:04;;;;;;;34.15;20.05;;;;;;;20.53;83.07;101996.53;4975244;28;20208;-75
2022/05/07 08:21:39;;;;;;;35.05;20.80;;;;;;;21.23;78.52;101995.72;4994435;28;20073;-74
2022/05/07 08:24:05;;;;;;;38.40;19.55;;;;;;;20.53;81.71;101997.41;4986403;28;20450;-75
2022/05/07 08:26:31;;;;;;;41.10;19.73;;;;;;;21.73;77.46;101997.81;4980547;28;20721;-75
2022/05/07 08:29:08;;;;;;;34.92;19.85;;;;;;;22.00;75.87;102002.25;4962492;28;20471;-74
2022/05/07 08:31:33;;;;;;;39.50;21.48;;;;;;;20.83;77.31;102002.75;4977192;28;20060;-75
2022/05/07 08:33:59;;;;;;;33.55;20.30;;;;;;;21.34;77.39;101998.25;4995650;28;20038;-74
2022/05/07 08:36:24;;;;;;;36.63;22.05;;;;;;;21.89;73.68;101994.22;4997790;28;20122;-76
2022/05/07 08:38:50;;;;;;;37.63;21.25;;;;;;;23.33;65.97;102004.16;4993392;28;20030;-75
2022/05/07 08:41:27;;;;;;;39.15;20.95;;;;;;;23.40;64.08;102001.53;4988938;28;20117;-76
2022/05/07 08:44:02;;;;;;;37.30;21.23;;;;;;;22.82;65.71;102006.28;4961878;28;20031;-76
2022/05/07 08:46:33;;;;;;;38.17;21.58;;;;;;;22.58;67.47;101994.06;4971319;28;20063;-77
2022/05/07 08:48:59;;;;;;;38.90;21.38;;;;;;;21.63;73.18;101994.28;4981441;28;20064;-77
2022/05/07 08:51:33;;;;;;;35.70;22.02;;;;;;;22.25;69.64;102004.25;4995987;28;20050;-75
2022/05/07 08:54:01;;;;;;;38.10;22.30;;;;;;;22.75;67.44;101995.81;4993800;28;20042;-76
2022/05/07 08:56:30;;;;;;;39.95;22.75;;;;;;;23.39;66.61;101991.41;4996267;28;20045;-76
2022/05/07 08:58:56;;;;;;;38.45;23.45;;;;;;;22.17;69.57;101999.53;4988226;28;20030;-76
2022/05/07 09:01:27;;;;;;;33.65;22.25;;;;;;;23.16;68.13;102006.13;4975708;28;20043;-77
2022/05/07 09:03:55;;;;;;;41.35;23.70;;;;;;;23.02;67.37;101995.63;4977279;28;20038;-76
2022/05/07 09:06:27;;;;;;;45.25;23.58;;;;;;;24.39;59.55;101994.47;4988152;28;20062;-76
2022/05/07 09:09:06;;;;;;;41.33;23.23;;;;;;;23.23;65.07;101990.38;4995023;28;20034;-76
2022/05/07 09:11:42;;;;;;;41.13;24.08;;;;;;;23.46;64.90;101986.84;4979212;28;20026;-75
2022/05/07 09:14:11;;;;;;;41.33;24.23;;;;;;;23.30;65.13;101988.66;4994688;28;20375;-75
2022/05/07 09:16:48;;;;;;;44.72;25.02;;;;;;;23.23;65.13;101992.31;4976290;28;20058;-76
2022/05/07 09:19:27;;;;;;;38.90;22.63;;;;;;;25.27;56.65;101988.56;5010446;28;20035;-76
2022/05/07 09:22:09;;;;;;;46.25;24.45;;;;;;;23.12;64.19;101983.25;4989805;28;20027;-75
2022/05/07 09:24:40;;;;;;;39.40;23.83;;;;;;;23.12;64.43;101988.00;4990418;28;20038;-74
2022/05/07 09:27:07;;;;;;;41.38;24.00;;;;;;;23.67;63.73;101986.25;4999454;28;20331;-77
2022/05/07 09:29:34;;;;;;;39.88;24.63;;;;;;;23.31;64.83;101976.38;4985686;28;20041;-76
2022/05/07 09:32:13;;;;;;;37.75;22.73;;;;;;;24.47;62.35;101982.34;5010661;28;20042;-76
2022/05/07 09:37:44;;;;;;;41.88;24.45;;;;;;;23.10;66.39;101981.69;4995204;28;20034;-77
2022/05/07 09:40:12;;;;;;;41.67;24.80;;;;;;;22.94;64.35;101977.84;4959620;28;20031;-76
2022/05/07 09:42:41;;;;;;;42.90;24.30;;;;;;;24.12;62.50;101972.59;4983181;28;20030;-76
2022/05/07 09:45:08;;;;;;;43.78;24.20;;;;;;;23.67;61.80;101983.47;4994510;28;20026;-76
2022/05/07 09:47:36;;;;;;;43.42;24.23;;;;;;;24.04;60.93;101974.41;4958300;28;20057;-76
2022/05/07 09:58:27;;;;;;;44.75;23.45;;;;;;;24.23;59.54;101969.38;4994175;28;20088;-77
2022/05/07 10:01:31;;;;;;;44.42;24.25;;;;;;;24.25;59.27;101978.47;4996334;28;20040;-76
2022/05/07 10:04:53;;;;;;;40.58;24.23;;;;;;;24.32;59.54;101973.88;4995107;28;20027;-76
2022/05/07 10:08:02;;;;;;;40.55;22.60;;;;;;;24.91;57.20;101972.41;4919902;29;20062;-76
2022/05/07 10:10:35;;;;;;;39.17;24.77;;;;;;;24.91;54.72;101975.22;4918875;29;20036;-76
2022/05/07 10:13:16;;;;;;;42.88;24.05;;;;;;;25.29;55.11;101975.22;4987750;28;20046;-77
2022/05/07 10:15:57;;;;;;;48.65;25.10;;;;;;;24.67;55.16;101974.34;5009598;28;20026;-77
2022/05/07 10:18:38;;;;;;;44.47;25.20;;;;;;;24.47;57.77;101967.50;5007569;28;20413;-77
2022/05/07 10:21:15;;;;;;;42.83;24.05;;;;;;;24.82;53.44;101976.34;4976066;28;20034;-77
2022/05/07 10:23:55;;;;;;;43.05;23.80;;;;;;;24.04;57.70;101962.34;4994018;28;20378;-77
2022/05/07 10:26:41;;;;;;;44.95;26.17;;;;;;;24.80;55.20;101967.25;4983666;28;20041;-76
2022/05/07 10:29:23;;;;;;;48.60;27.30;;;;;;;24.66;57.17;101961.44;4975186;28;20042;-77
2022/05/07 10:31:50;;;;;;;41.55;25.23;;;;;;;25.66;51.18;101957.44;4987786;28;20154;-77
2022/05/07 10:34:26;;;;;;;46.75;26.10;;;;;;;24.34;54.42;101957.78;4993171;28;20033;-76
2022/05/07 10:37:06;;;;;;;44.25;26.70;;;;;;;25.39;52.96;101956.16;4979151;28;20043;-76
2022/05/07 10:39:36;;;;;;;52.58;26.35;;;;;;;24.53;54.68;101959.22;4989670;28;20031;-76
2022/05/07 10:42:13;;;;;;;42.33;24.02;;;;;;;25.17;51.97;101954.28;4954863;28;20395;-76
2022/05/07 10:44:41;;;;;;;31.85;17.83;;;;;;;24.93;51.61;101947.88;4978234;28;20101;-77
2022/05/07 10:47:18;;;;;;;34.85;18.48;;;;;;;25.13;50.61;101954.66;5001698;28;20039;-77
2022/05/07 10:49:55;;;;;;;33.38;17.25;;;;;;;25.38;48.88;101946.00;4983043;28;20030;-75
2022/05/07 10:52:32;;;;;;;34.25;17.88;;;;;;;25.08;49.29;101948.75;5008201;28;20435;-76
2022/05/07 10:55:12;;;;;;;49.22;21.70;;;;;;;24.81;51.65;101947.47;4995238;28;20394;-76
2022/05/07 10:57:45;;;;;;;41.45;21.63;;;;;;;25.14;50.50;101941.53;4993928;28;20038;-76
2022/05/07 11:00:22;;;;;;;41.97;22.60;;;;;;;24.01;50.58;101941.19;4958778;28;20486;-77
2022/05/07 11:02:56;;;;;;;37.97;21.25;;;;;;;23.34;53.28;101943.56;4975366;28;20031;-77
2022/05/07 11:05:33;;;;;;;40.35;21.52;;;;;;;23.38;53.68;101936.56;4988086;28;20030;-76
2022/05/07 11:08:09;;;;;;;43.17;23.52;;;;;;;23.57;52.81;101930.53;4977410;28;20536;-76
2022/05/07 11:10:38;;;;;;;43.05;22.48;;;;;;;24.55;51.79;101931.03;4991407;28;20097;-76
2022/05/07 11:13:15;;;;;;;39.63;23.17;;;;;;;24.14;53.65;101937.78;4978630;28;20034;-76
2022/05/07 11:16:02;;;;;;;50.90;23.92;;;;;;;23.80;53.62;101927.81;4994750;28;20065;-76
2022/05/07 11:18:34;;;;;;;44.78;22.17;;;;;;;24.07;54.95;101933.09;4980090;28;20074;-75
2022/05/07 11:21:01;;;;;;;38.17;19.55;;;;;;;24.49;55.12;101924.22;4972398;28;20516;-76
2022/05/07 11:23:45;;;;;;;48.35;22.38;;;;;;;25.13;49.92;101917.34;4989696;28;20031;-76
2022/05/07 11:26:15;;;;;;;43.42;24.02;;;;;;;24.40;51.40;101928.19;4994497;28;20019;-76
2022/05/07 11:28:49;;;;;;;43.67;21.13;;;;;;;23.94;53.91;101922.50;5004566;28;20038;-77
2022/05/07 11:31:34;;;;;;;39.50;22.70;;;;;;;24.34;51.46;101926.97;4980746;28;20086;-76
2022/05/07 11:34:11;;;;;;;44.67;23.55;;;;;;;24.29;50.59;101923.88;4994451;28;20041;-76
2022/05/07 11:36:38;;;;;;;36.72;20.75;;;;;;;24.14;49.77;101922.94;4986930;28;20069;-76
2022/05/07 11:39:24;;;;;;;41.70;19.98;;;;;;;24.76;49.10;101924.75;4993394;28;20042;-76
2022/05/07 11:41:55;;;;;;;42.45;20.60;;;;;;;25.15;47.27;101918.03;4981111;28;20045;-76
2022/05/07 11:47:22;;;;;;;35.85;18.67;;;;;;;24.93;44.28;101917.91;4994324;28;20059;-76
2022/05/07 11:50:04;;;;;;;40.30;20.60;;;;;;;24.46;44.30;101904.13;4995078;28;20108;-77
2022/05/07 11:52:31;;;;;;;33.75;17.88;;;;;;;24.60;44.92;101917.38;4979122;28;20035;-76
2022/05/07 11:55:10;;;;;;;41.65;20.38;;;;;;;23.46;47.95;101914.16;4993214;28;20491;-75